ADDS METAR Data INFO
IDs: Format: Raw Decoded Include TAF

Data at: 1130 UTC 29 May 2017

METAR for:PADK (Adak (NAS), AK, US)
Text:PADK 291116Z AUTO 00000KT 10SM BKN039 OVC048 04/M01 A2957 RMK AO1
Temperature: 4.0°C ( 39°F)
Dewpoint: -1.0°C ( 30°F) [RH = 70%]
Pressure (altimeter):29.57 inches Hg (1001.4 mb)
Winds:calm
Visibility:10 or more sm (16+ km)
Ceiling:3900 feet AGL
Clouds: broken clouds at 3900 feet AGL, overcast cloud deck at 4800 feet AGL
QC Flag:automated observation with no human augmentation
Text:PADK 291056Z AUTO 20004KT 10SM FEW022 SCT032 BKN040 04/M01 A2957 RMK AO1
Temperature: 4.0°C ( 39°F)
Dewpoint: -1.0°C ( 30°F) [RH = 70%]
Pressure (altimeter):29.57 inches Hg (1001.4 mb)
Winds:from the SSW (200 degrees) at 5 MPH (4 knots; 2.1 m/s)
Visibility:10 or more sm (16+ km)
Ceiling:4000 feet AGL
Clouds: few clouds at 2200 feet AGL, scattered clouds at 3200 feet AGL, broken clouds at 4000 feet AGL
QC Flag:automated observation with no human augmentation
Text:PADK 291036Z AUTO 00000KT 10SM SCT029 BKN039 OVC055 04/M01 A2958 RMK AO1
Temperature: 4.0°C ( 39°F)
Dewpoint: -1.0°C ( 30°F) [RH = 70%]
Pressure (altimeter):29.58 inches Hg (1001.8 mb)
Winds:calm
Visibility:10 or more sm (16+ km)
Ceiling:3900 feet AGL
Clouds: scattered clouds at 2900 feet AGL, broken clouds at 3900 feet AGL, overcast cloud deck at 5500 feet AGL
QC Flag:automated observation with no human augmentation
Text:PADK 291016Z AUTO 20004KT 10SM FEW025 BKN033 OVC039 04/M01 A2957 RMK AO1
Temperature: 4.0°C ( 39°F)
Dewpoint: -1.0°C ( 30°F) [RH = 70%]
Pressure (altimeter):29.57 inches Hg (1001.4 mb)
Winds:from the SSW (200 degrees) at 5 MPH (4 knots; 2.1 m/s)
Visibility:10 or more sm (16+ km)
Ceiling:3300 feet AGL
Clouds: few clouds at 2500 feet AGL, broken clouds at 3300 feet AGL, overcast cloud deck at 3900 feet AGL
QC Flag:automated observation with no human augmentation
Text:PADK 290956Z AUTO 22003KT 10SM FEW018 SCT030 BKN038 04/M01 A2958 RMK AO1
Temperature: 4.0°C ( 39°F)
Dewpoint: -1.0°C ( 30°F) [RH = 70%]
Pressure (altimeter):29.58 inches Hg (1001.8 mb)
Winds:from the SW (220 degrees) at 3 MPH (3 knots; 1.5 m/s)
Visibility:10 or more sm (16+ km)
Ceiling:3800 feet AGL
Clouds: few clouds at 1800 feet AGL, scattered clouds at 3000 feet AGL, broken clouds at 3800 feet AGL
QC Flag:automated observation with no human augmentation
Text:PADK 290936Z AUTO 25006KT 10SM FEW017 SCT026 BKN031 04/M01 A2958 RMK AO1
Temperature: 4.0°C ( 39°F)
Dewpoint: -1.0°C ( 30°F) [RH = 70%]
Pressure (altimeter):29.58 inches Hg (1001.8 mb)
Winds:from the WSW (250 degrees) at 7 MPH (6 knots; 3.1 m/s)
Visibility:10 or more sm (16+ km)
Ceiling:3100 feet AGL
Clouds: few clouds at 1700 feet AGL, scattered clouds at 2600 feet AGL, broken clouds at 3100 feet AGL
QC Flag:automated observation with no human augmentation
Text:PADK 290916Z AUTO 22003KT 10SM SCT029 BKN035 OVC055 04/M01 A2958 RMK AO1
Temperature: 4.0°C ( 39°F)
Dewpoint: -1.0°C ( 30°F) [RH = 70%]
Pressure (altimeter):29.58 inches Hg (1001.8 mb)
Winds:from the SW (220 degrees) at 3 MPH (3 knots; 1.5 m/s)
Visibility:10 or more sm (16+ km)
Ceiling:3500 feet AGL
Clouds: scattered clouds at 2900 feet AGL, broken clouds at 3500 feet AGL, overcast cloud deck at 5500 feet AGL
QC Flag:automated observation with no human augmentation
Text:PADK 290856Z AUTO 22003KT 10SM SCT033 SCT040 OVC055 04/M01 A2958 RMK AO1 52007
Temperature: 4.0°C ( 39°F)
Dewpoint: -1.0°C ( 30°F) [RH = 70%]
Pressure (altimeter):29.58 inches Hg (1001.8 mb)
Winds:from the SW (220 degrees) at 3 MPH (3 knots; 1.5 m/s)
Visibility:10 or more sm (16+ km)
Ceiling:5500 feet AGL
Clouds: scattered clouds at 3300 feet AGL, scattered clouds at 4000 feet AGL, overcast cloud deck at 5500 feet AGL
QC Flag:automated observation with no human augmentation
Text:PADK 290836Z AUTO 26006KT 10SM SCT018 BKN040 OVC050 04/M01 A2957 RMK AO1
Temperature: 4.0°C ( 39°F)
Dewpoint: -1.0°C ( 30°F) [RH = 70%]
Pressure (altimeter):29.57 inches Hg (1001.4 mb)
Winds:from the W (260 degrees) at 7 MPH (6 knots; 3.1 m/s)
Visibility:10 or more sm (16+ km)
Ceiling:4000 feet AGL
Clouds: scattered clouds at 1800 feet AGL, broken clouds at 4000 feet AGL, overcast cloud deck at 5000 feet AGL
QC Flag:automated observation with no human augmentation
Text:PADK 290816Z AUTO 23005KT 10SM BKN018 BKN024 OVC060 05/M01 A2957 RMK AO1
Temperature: 5.0°C ( 41°F)
Dewpoint: -1.0°C ( 30°F) [RH = 65%]
Pressure (altimeter):29.57 inches Hg (1001.4 mb)
Winds:from the SW (230 degrees) at 6 MPH (5 knots; 2.6 m/s)
Visibility:10 or more sm (16+ km)
Ceiling:1800 feet AGL
Clouds: broken clouds at 1800 feet AGL, broken clouds at 2400 feet AGL, overcast cloud deck at 6000 feet AGL
QC Flag:automated observation with no human augmentation
Text:PADK 290756Z AUTO 25003KT 10SM BKN019 BKN029 OVC060 05/M01 A2957 RMK AO1
Temperature: 5.0°C ( 41°F)
Dewpoint: -1.0°C ( 30°F) [RH = 65%]
Pressure (altimeter):29.57 inches Hg (1001.4 mb)
Winds:from the WSW (250 degrees) at 3 MPH (3 knots; 1.5 m/s)
Visibility:10 or more sm (16+ km)
Ceiling:1900 feet AGL
Clouds: broken clouds at 1900 feet AGL, broken clouds at 2900 feet AGL, overcast cloud deck at 6000 feet AGL
QC Flag:automated observation with no human augmentation
Text:PADK 290736Z AUTO 22006KT 10SM BKN017 OVC048 06/M01 A2957 RMK AO1
Temperature: 6.0°C ( 43°F)
Dewpoint: -1.0°C ( 30°F) [RH = 61%]
Pressure (altimeter):29.57 inches Hg (1001.4 mb)
Winds:from the SW (220 degrees) at 7 MPH (6 knots; 3.1 m/s)
Visibility:10 or more sm (16+ km)
Ceiling:1700 feet AGL
Clouds: broken clouds at 1700 feet AGL, overcast cloud deck at 4800 feet AGL
QC Flag:automated observation with no human augmentation
Text:PADK 290716Z AUTO 18008KT 10SM OVC046 06/00 A2956 RMK AO1
Temperature: 6.0°C ( 43°F)
Dewpoint: 0.0°C ( 32°F) [RH = 65%]
Pressure (altimeter):29.56 inches Hg (1001.1 mb)
Winds:from the S (180 degrees) at 9 MPH (8 knots; 4.1 m/s)
Visibility:10 or more sm (16+ km)
Ceiling:4600 feet AGL
Clouds: overcast cloud deck at 4600 feet AGL
QC Flag:automated observation with no human augmentation
Text:PADK 290656Z AUTO 19011KT 10SM FEW016 OVC042 06/M01 A2956 RMK AO1
Temperature: 6.0°C ( 43°F)
Dewpoint: -1.0°C ( 30°F) [RH = 61%]
Pressure (altimeter):29.56 inches Hg (1001.1 mb)
Winds:from the S (190 degrees) at 13 MPH (11 knots; 5.7 m/s)
Visibility:10 or more sm (16+ km)
Ceiling:4200 feet AGL
Clouds: few clouds at 1600 feet AGL, overcast cloud deck at 4200 feet AGL
QC Flag:automated observation with no human augmentation
Text:PADK 290636Z AUTO 18008KT 10SM SCT016 BKN025 OVC044 06/00 A2956 RMK AO1
Temperature: 6.0°C ( 43°F)
Dewpoint: 0.0°C ( 32°F) [RH = 65%]
Pressure (altimeter):29.56 inches Hg (1001.1 mb)
Winds:from the S (180 degrees) at 9 MPH (8 knots; 4.1 m/s)
Visibility:10 or more sm (16+ km)
Ceiling:2500 feet AGL
Clouds: scattered clouds at 1600 feet AGL, broken clouds at 2500 feet AGL, overcast cloud deck at 4400 feet AGL
QC Flag:automated observation with no human augmentation
Text:PADK 290616Z AUTO 24005KT 10SM OVC025 06/M01 A2956 RMK AO1
Temperature: 6.0°C ( 43°F)
Dewpoint: -1.0°C ( 30°F) [RH = 61%]
Pressure (altimeter):29.56 inches Hg (1001.1 mb)
Winds:from the WSW (240 degrees) at 6 MPH (5 knots; 2.6 m/s)
Visibility:10 or more sm (16+ km)
Ceiling:2500 feet AGL
Clouds: overcast cloud deck at 2500 feet AGL
QC Flag:automated observation with no human augmentation
Text:PADK 290556Z AUTO 24008KT 10SM BKN022 OVC027 06/M01 A2956 RMK AO1 60001 10070 20060 57003
Temperature: 6.0°C ( 43°F)
Dewpoint: -1.0°C ( 30°F) [RH = 61%]
Pressure (altimeter):29.56 inches Hg (1001.1 mb)
Winds:from the WSW (240 degrees) at 9 MPH (8 knots; 4.1 m/s)
Visibility:10 or more sm (16+ km)
Ceiling:2200 feet AGL
Clouds: broken clouds at 2200 feet AGL, overcast cloud deck at 2700 feet AGL
QC Flag:automated observation with no human augmentation
Text:PADK 290536Z AUTO 23006KT 10SM SCT022 BKN030 OVC042 07/00 A2956 RMK AO1
Temperature: 7.0°C ( 45°F)
Dewpoint: 0.0°C ( 32°F) [RH = 61%]
Pressure (altimeter):29.56 inches Hg (1001.1 mb)
Winds:from the SW (230 degrees) at 7 MPH (6 knots; 3.1 m/s)
Visibility:10 or more sm (16+ km)
Ceiling:3000 feet AGL
Clouds: scattered clouds at 2200 feet AGL, broken clouds at 3000 feet AGL, overcast cloud deck at 4200 feet AGL
QC Flag:automated observation with no human augmentation

TAF for:PADK (Adak (NAS), AK, US)
Text:No data found


Page loaded:  11:30 UTC  |   04:30 AM Pacific  |   05:30 AM Mountain  |   06:30 AM Central  |   07:30 AM Eastern

 

ADVISORIES

FORECASTS

FORECASTS

OBSERVATIONS

USER TOOLS

ABOUT US